sensor_id;sensor_type;location;lat;lon;timestamp;P1;durP1;ratioP1;P2;durP2;ratioP2
40515;SDS011;26216;53.724;9.898;2022-12-08T00:01:14;5.85;;;4.55;;
40515;SDS011;26216;53.724;9.898;2022-12-08T00:03:48;7.38;;;5.28;;
40515;SDS011;26216;53.724;9.898;2022-12-08T00:09:02;7.78;;;5.80;;
40515;SDS011;26216;53.724;9.898;2022-12-08T00:11:46;7.57;;;5.50;;
40515;SDS011;26216;53.724;9.898;2022-12-08T00:14:17;7.75;;;5.78;;
40515;SDS011;26216;53.724;9.898;2022-12-08T00:16:42;7.63;;;5.40;;
40515;SDS011;26216;53.724;9.898;2022-12-08T00:19:09;7.32;;;5.60;;
40515;SDS011;26216;53.724;9.898;2022-12-08T00:21:35;8.68;;;6.53;;
40515;SDS011;26216;53.724;9.898;2022-12-08T00:24:00;7.78;;;6.13;;
40515;SDS011;26216;53.724;9.898;2022-12-08T00:26:26;7.35;;;5.82;;
40515;SDS011;26216;53.724;9.898;2022-12-08T00:28:52;7.65;;;6.40;;
40515;SDS011;26216;53.724;9.898;2022-12-08T00:31:18;8.00;;;6.32;;
40515;SDS011;26216;53.724;9.898;2022-12-08T00:33:44;8.73;;;7.13;;
40515;SDS011;26216;53.724;9.898;2022-12-08T00:36:11;6.97;;;5.80;;
40515;SDS011;26216;53.724;9.898;2022-12-08T00:38:38;8.07;;;6.78;;
40515;SDS011;26216;53.724;9.898;2022-12-08T00:41:08;7.90;;;5.82;;
40515;SDS011;26216;53.724;9.898;2022-12-08T00:43:37;8.73;;;6.10;;
40515;SDS011;26216;53.724;9.898;2022-12-08T00:46:03;8.60;;;5.93;;
40515;SDS011;26216;53.724;9.898;2022-12-08T00:48:29;7.60;;;5.70;;
40515;SDS011;26216;53.724;9.898;2022-12-08T00:50:56;7.18;;;5.57;;
40515;SDS011;26216;53.724;9.898;2022-12-08T00:53:21;7.07;;;5.35;;
40515;SDS011;26216;53.724;9.898;2022-12-08T00:55:47;6.85;;;5.07;;
40515;SDS011;26216;53.724;9.898;2022-12-08T00:58:13;7.88;;;5.82;;
40515;SDS011;26216;53.724;9.898;2022-12-08T01:00:39;7.25;;;6.13;;
40515;SDS011;26216;53.724;9.898;2022-12-08T01:03:08;7.97;;;5.55;;
40515;SDS011;26216;53.724;9.898;2022-12-08T01:05:35;6.80;;;5.47;;
40515;SDS011;26216;53.724;9.898;2022-12-08T01:08:00;6.65;;;5.45;;
40515;SDS011;26216;53.724;9.898;2022-12-08T01:10:29;6.25;;;4.88;;
40515;SDS011;26216;53.724;9.898;2022-12-08T01:12:55;6.32;;;4.80;;
40515;SDS011;26216;53.724;9.898;2022-12-08T01:15:22;6.97;;;5.30;;
40515;SDS011;26216;53.724;9.898;2022-12-08T01:17:48;6.65;;;5.43;;
40515;SDS011;26216;53.724;9.898;2022-12-08T01:20:14;7.22;;;5.40;;
40515;SDS011;26216;53.724;9.898;2022-12-08T01:22:39;6.32;;;5.20;;
40515;SDS011;26216;53.724;9.898;2022-12-08T01:25:05;6.20;;;5.03;;
40515;SDS011;26216;53.724;9.898;2022-12-08T01:27:31;5.60;;;4.70;;
40515;SDS011;26216;53.724;9.898;2022-12-08T01:29:57;5.63;;;4.72;;
40515;SDS011;26216;53.724;9.898;2022-12-08T01:32:23;6.28;;;5.10;;
40515;SDS011;26216;53.724;9.898;2022-12-08T01:34:48;6.18;;;5.10;;
40515;SDS011;26216;53.724;9.898;2022-12-08T01:37:14;5.03;;;4.13;;
40515;SDS011;26216;53.724;9.898;2022-12-08T01:39:40;5.53;;;4.07;;
40515;SDS011;26216;53.724;9.898;2022-12-08T01:42:13;5.18;;;4.18;;
40515;SDS011;26216;53.724;9.898;2022-12-08T01:44:49;5.35;;;4.10;;
40515;SDS011;26216;53.724;9.898;2022-12-08T01:47:18;4.85;;;3.97;;
40515;SDS011;26216;53.724;9.898;2022-12-08T01:49:45;5.10;;;3.88;;
40515;SDS011;26216;53.724;9.898;2022-12-08T01:52:25;5.43;;;4.00;;
40515;SDS011;26216;53.724;9.898;2022-12-08T01:55:00;5.07;;;3.85;;
40515;SDS011;26216;53.724;9.898;2022-12-08T01:57:34;5.22;;;4.05;;
40515;SDS011;26216;53.724;9.898;2022-12-08T02:00:09;4.95;;;3.90;;
40515;SDS011;26216;53.724;9.898;2022-12-08T02:02:58;4.70;;;3.83;;
40515;SDS011;26216;53.724;9.898;2022-12-08T02:05:28;4.70;;;3.72;;
40515;SDS011;26216;53.724;9.898;2022-12-08T02:07:57;4.53;;;3.88;;
40515;SDS011;26216;53.724;9.898;2022-12-08T02:10:26;4.38;;;3.75;;
40515;SDS011;26216;53.724;9.898;2022-12-08T02:12:54;5.00;;;3.95;;
40515;SDS011;26216;53.724;9.898;2022-12-08T02:15:23;5.80;;;4.60;;
40515;SDS011;26216;53.724;9.898;2022-12-08T02:23:22;6.63;;;4.70;;
40515;SDS011;26216;53.724;9.898;2022-12-08T02:37:49;5.70;;;4.38;;
40515;SDS011;26216;53.724;9.898;2022-12-08T02:43:26;5.40;;;3.90;;
40515;SDS011;26216;53.724;9.898;2022-12-08T02:45:59;5.32;;;3.60;;
40515;SDS011;26216;53.724;9.898;2022-12-08T02:48:29;4.13;;;3.42;;
40515;SDS011;26216;53.724;9.898;2022-12-08T02:50:58;3.28;;;2.72;;
40515;SDS011;26216;53.724;9.898;2022-12-08T02:53:24;3.53;;;2.47;;
40515;SDS011;26216;53.724;9.898;2022-12-08T03:14:55;3.60;;;2.92;;
40515;SDS011;26216;53.724;9.898;2022-12-08T03:17:24;3.15;;;2.40;;
40515;SDS011;26216;53.724;9.898;2022-12-08T03:19:54;4.15;;;2.50;;
40515;SDS011;26216;53.724;9.898;2022-12-08T03:22:24;3.13;;;2.28;;
40515;SDS011;26216;53.724;9.898;2022-12-08T03:24:53;2.95;;;2.55;;
40515;SDS011;26216;53.724;9.898;2022-12-08T03:27:20;3.05;;;2.50;;
40515;SDS011;26216;53.724;9.898;2022-12-08T03:29:53;3.07;;;2.37;;
40515;SDS011;26216;53.724;9.898;2022-12-08T03:34:59;2.65;;;2.40;;
40515;SDS011;26216;53.724;9.898;2022-12-08T03:37:28;2.55;;;2.03;;
40515;SDS011;26216;53.724;9.898;2022-12-08T03:39:54;2.60;;;2.08;;
40515;SDS011;26216;53.724;9.898;2022-12-08T03:42:20;2.88;;;1.65;;
40515;SDS011;26216;53.724;9.898;2022-12-08T03:44:46;2.92;;;1.70;;
40515;SDS011;26216;53.724;9.898;2022-12-08T03:47:12;2.60;;;1.67;;
40515;SDS011;26216;53.724;9.898;2022-12-08T03:49:38;2.33;;;1.80;;
40515;SDS011;26216;53.724;9.898;2022-12-08T03:52:05;2.42;;;1.63;;
40515;SDS011;26216;53.724;9.898;2022-12-08T03:54:31;2.83;;;1.80;;
40515;SDS011;26216;53.724;9.898;2022-12-08T03:56:56;2.55;;;1.60;;
40515;SDS011;26216;53.724;9.898;2022-12-08T03:59:22;1.33;;;1.23;;
40515;SDS011;26216;53.724;9.898;2022-12-08T04:01:48;2.67;;;1.38;;
40515;SDS011;26216;53.724;9.898;2022-12-08T04:04:14;1.70;;;1.20;;
40515;SDS011;26216;53.724;9.898;2022-12-08T04:06:40;2.13;;;1.10;;
40515;SDS011;26216;53.724;9.898;2022-12-08T04:09:06;1.42;;;1.20;;
40515;SDS011;26216;53.724;9.898;2022-12-08T04:11:32;1.85;;;1.10;;
40515;SDS011;26216;53.724;9.898;2022-12-08T04:13:57;1.60;;;1.20;;
40515;SDS011;26216;53.724;9.898;2022-12-08T04:16:23;1.33;;;1.10;;
40515;SDS011;26216;53.724;9.898;2022-12-08T04:18:50;1.55;;;1.10;;
40515;SDS011;26216;53.724;9.898;2022-12-08T04:21:16;1.30;;;1.02;;
40515;SDS011;26216;53.724;9.898;2022-12-08T04:23:42;2.03;;;1.30;;
40515;SDS011;26216;53.724;9.898;2022-12-08T04:26:09;1.80;;;1.48;;
40515;SDS011;26216;53.724;9.898;2022-12-08T04:28:37;1.70;;;1.30;;
40515;SDS011;26216;53.724;9.898;2022-12-08T04:31:03;2.08;;;1.50;;
40515;SDS011;26216;53.724;9.898;2022-12-08T04:33:29;3.05;;;1.88;;
40515;SDS011;26216;53.724;9.898;2022-12-08T04:35:55;2.10;;;1.63;;
40515;SDS011;26216;53.724;9.898;2022-12-08T04:38:21;2.40;;;1.55;;
40515;SDS011;26216;53.724;9.898;2022-12-08T04:40:48;2.13;;;1.40;;
40515;SDS011;26216;53.724;9.898;2022-12-08T04:43:14;1.90;;;1.70;;
40515;SDS011;26216;53.724;9.898;2022-12-08T04:45:40;1.63;;;1.50;;
40515;SDS011;26216;53.724;9.898;2022-12-08T04:48:07;1.77;;;1.48;;
40515;SDS011;26216;53.724;9.898;2022-12-08T04:50:34;2.15;;;1.50;;
40515;SDS011;26216;53.724;9.898;2022-12-08T04:52:59;1.20;;;1.10;;
40515;SDS011;26216;53.724;9.898;2022-12-08T04:55:25;1.80;;;1.20;;
40515;SDS011;26216;53.724;9.898;2022-12-08T04:57:51;1.42;;;1.10;;
40515;SDS011;26216;53.724;9.898;2022-12-08T05:00:17;1.40;;;1.20;;
40515;SDS011;26216;53.724;9.898;2022-12-08T05:02:43;1.20;;;1.10;;
40515;SDS011;26216;53.724;9.898;2022-12-08T05:05:09;1.58;;;1.08;;
40515;SDS011;26216;53.724;9.898;2022-12-08T05:07:35;1.52;;;1.27;;
40515;SDS011;26216;53.724;9.898;2022-12-08T05:10:01;2.00;;;1.38;;
40515;SDS011;26216;53.724;9.898;2022-12-08T05:12:27;1.63;;;1.38;;
40515;SDS011;26216;53.724;9.898;2022-12-08T05:14:53;1.30;;;1.00;;
40515;SDS011;26216;53.724;9.898;2022-12-08T05:17:19;1.65;;;1.08;;
40515;SDS011;26216;53.724;9.898;2022-12-08T05:19:45;2.08;;;0.90;;
40515;SDS011;26216;53.724;9.898;2022-12-08T05:22:11;0.98;;;0.80;;
40515;SDS011;26216;53.724;9.898;2022-12-08T05:24:39;0.73;;;0.70;;
40515;SDS011;26216;53.724;9.898;2022-12-08T05:27:05;1.50;;;0.98;;
40515;SDS011;26216;53.724;9.898;2022-12-08T05:29:31;0.80;;;0.80;;
40515;SDS011;26216;53.724;9.898;2022-12-08T05:31:57;0.90;;;0.73;;
40515;SDS011;26216;53.724;9.898;2022-12-08T05:34:23;1.33;;;1.05;;
40515;SDS011;26216;53.724;9.898;2022-12-08T05:36:49;1.15;;;0.80;;
40515;SDS011;26216;53.724;9.898;2022-12-08T05:39:14;1.67;;;0.90;;
40515;SDS011;26216;53.724;9.898;2022-12-08T05:41:40;0.80;;;0.73;;
40515;SDS011;26216;53.724;9.898;2022-12-08T05:44:06;1.20;;;0.90;;
40515;SDS011;26216;53.724;9.898;2022-12-08T05:46:32;1.00;;;0.75;;
40515;SDS011;26216;53.724;9.898;2022-12-08T05:48:59;1.42;;;0.80;;
40515;SDS011;26216;53.724;9.898;2022-12-08T05:51:25;0.70;;;0.60;;
40515;SDS011;26216;53.724;9.898;2022-12-08T05:53:53;1.25;;;0.70;;
40515;SDS011;26216;53.724;9.898;2022-12-08T05:56:19;0.55;;;0.55;;
40515;SDS011;26216;53.724;9.898;2022-12-08T05:58:46;0.65;;;0.60;;
40515;SDS011;26216;53.724;9.898;2022-12-08T06:01:27;1.48;;;0.70;;
40515;SDS011;26216;53.724;9.898;2022-12-08T06:03:56;0.70;;;0.60;;
40515;SDS011;26216;53.724;9.898;2022-12-08T06:06:23;0.50;;;0.50;;
40515;SDS011;26216;53.724;9.898;2022-12-08T06:08:49;0.70;;;0.60;;
40515;SDS011;26216;53.724;9.898;2022-12-08T06:13:45;1.38;;;0.80;;
40515;SDS011;26216;53.724;9.898;2022-12-08T06:16:11;1.00;;;0.90;;
40515;SDS011;26216;53.724;9.898;2022-12-08T06:18:37;0.85;;;0.73;;
40515;SDS011;26216;53.724;9.898;2022-12-08T06:21:04;0.98;;;0.73;;
40515;SDS011;26216;53.724;9.898;2022-12-08T06:23:31;0.68;;;0.60;;
40515;SDS011;26216;53.724;9.898;2022-12-08T06:26:01;0.88;;;0.70;;
40515;SDS011;26216;53.724;9.898;2022-12-08T06:28:28;0.73;;;0.70;;
40515;SDS011;26216;53.724;9.898;2022-12-08T06:30:55;1.33;;;1.05;;
40515;SDS011;26216;53.724;9.898;2022-12-08T06:33:21;1.13;;;0.80;;
40515;SDS011;26216;53.724;9.898;2022-12-08T06:35:46;0.70;;;0.70;;
40515;SDS011;26216;53.724;9.898;2022-12-08T06:38:12;2.00;;;0.90;;
40515;SDS011;26216;53.724;9.898;2022-12-08T06:40:38;1.08;;;0.80;;
40515;SDS011;26216;53.724;9.898;2022-12-08T06:43:04;1.00;;;0.90;;
40515;SDS011;26216;53.724;9.898;2022-12-08T06:45:30;1.70;;;1.10;;
40515;SDS011;26216;53.724;9.898;2022-12-08T06:47:56;1.55;;;0.98;;
40515;SDS011;26216;53.724;9.898;2022-12-08T06:50:21;2.10;;;1.17;;
40515;SDS011;26216;53.724;9.898;2022-12-08T06:52:47;1.20;;;1.10;;
40515;SDS011;26216;53.724;9.898;2022-12-08T06:55:13;0.95;;;0.93;;
40515;SDS011;26216;53.724;9.898;2022-12-08T06:57:39;1.45;;;1.20;;
40515;SDS011;26216;53.724;9.898;2022-12-08T07:00:05;1.40;;;1.02;;
40515;SDS011;26216;53.724;9.898;2022-12-08T07:02:32;1.45;;;1.10;;
40515;SDS011;26216;53.724;9.898;2022-12-08T07:04:58;2.25;;;1.05;;
40515;SDS011;26216;53.724;9.898;2022-12-08T07:07:23;1.88;;;1.30;;
40515;SDS011;26216;53.724;9.898;2022-12-08T07:09:49;1.50;;;1.20;;
40515;SDS011;26216;53.724;9.898;2022-12-08T07:12:15;1.58;;;1.30;;
40515;SDS011;26216;53.724;9.898;2022-12-08T07:14:41;1.58;;;1.20;;
40515;SDS011;26216;53.724;9.898;2022-12-08T07:17:07;1.77;;;1.50;;
40515;SDS011;26216;53.724;9.898;2022-12-08T07:19:33;2.10;;;1.80;;
40515;SDS011;26216;53.724;9.898;2022-12-08T07:21:59;1.90;;;1.42;;
40515;SDS011;26216;53.724;9.898;2022-12-08T07:24:24;1.67;;;1.33;;
40515;SDS011;26216;53.724;9.898;2022-12-08T07:26:50;1.80;;;1.50;;
40515;SDS011;26216;53.724;9.898;2022-12-08T07:29:16;1.90;;;1.45;;
40515;SDS011;26216;53.724;9.898;2022-12-08T07:31:42;1.80;;;1.50;;
40515;SDS011;26216;53.724;9.898;2022-12-08T07:34:09;2.05;;;1.60;;
40515;SDS011;26216;53.724;9.898;2022-12-08T07:36:36;1.95;;;1.67;;
40515;SDS011;26216;53.724;9.898;2022-12-08T07:39:02;1.83;;;1.50;;
40515;SDS011;26216;53.724;9.898;2022-12-08T07:41:28;1.88;;;1.55;;
40515;SDS011;26216;53.724;9.898;2022-12-08T07:43:54;2.22;;;1.80;;
40515;SDS011;26216;53.724;9.898;2022-12-08T07:46:21;2.28;;;1.80;;
40515;SDS011;26216;53.724;9.898;2022-12-08T07:48:48;1.77;;;1.60;;
40515;SDS011;26216;53.724;9.898;2022-12-08T07:51:14;2.25;;;1.85;;
40515;SDS011;26216;53.724;9.898;2022-12-08T07:53:42;2.60;;;2.00;;
40515;SDS011;26216;53.724;9.898;2022-12-08T07:56:10;2.50;;;1.95;;
40515;SDS011;26216;53.724;9.898;2022-12-08T07:58:37;2.92;;;1.90;;
40515;SDS011;26216;53.724;9.898;2022-12-08T08:01:03;3.22;;;2.60;;
40515;SDS011;26216;53.724;9.898;2022-12-08T08:03:30;2.65;;;2.17;;
40515;SDS011;26216;53.724;9.898;2022-12-08T08:06:03;3.15;;;2.55;;
40515;SDS011;26216;53.724;9.898;2022-12-08T08:08:29;2.65;;;2.20;;
40515;SDS011;26216;53.724;9.898;2022-12-08T08:10:56;2.58;;;2.25;;
40515;SDS011;26216;53.724;9.898;2022-12-08T08:13:22;2.53;;;1.88;;
40515;SDS011;26216;53.724;9.898;2022-12-08T08:15:48;2.92;;;2.45;;
40515;SDS011;26216;53.724;9.898;2022-12-08T08:18:15;2.78;;;2.22;;
40515;SDS011;26216;53.724;9.898;2022-12-08T08:20:41;2.20;;;1.80;;
40515;SDS011;26216;53.724;9.898;2022-12-08T08:23:07;3.50;;;2.38;;
40515;SDS011;26216;53.724;9.898;2022-12-08T08:25:33;2.65;;;2.15;;
40515;SDS011;26216;53.724;9.898;2022-12-08T08:27:59;2.80;;;2.40;;
40515;SDS011;26216;53.724;9.898;2022-12-08T08:30:25;2.90;;;2.30;;
40515;SDS011;26216;53.724;9.898;2022-12-08T08:32:51;2.65;;;2.15;;
40515;SDS011;26216;53.724;9.898;2022-12-08T08:35:17;3.00;;;2.35;;
40515;SDS011;26216;53.724;9.898;2022-12-08T08:37:42;2.40;;;2.10;;
40515;SDS011;26216;53.724;9.898;2022-12-08T08:40:08;2.80;;;2.40;;
40515;SDS011;26216;53.724;9.898;2022-12-08T08:42:34;2.65;;;2.10;;
40515;SDS011;26216;53.724;9.898;2022-12-08T08:45:00;2.60;;;2.10;;
40515;SDS011;26216;53.724;9.898;2022-12-08T08:47:26;3.13;;;2.40;;
40515;SDS011;26216;53.724;9.898;2022-12-08T08:49:52;2.95;;;2.20;;
40515;SDS011;26216;53.724;9.898;2022-12-08T08:52:18;3.20;;;2.20;;
40515;SDS011;26216;53.724;9.898;2022-12-08T08:54:44;2.50;;;2.10;;
40515;SDS011;26216;53.724;9.898;2022-12-08T08:57:10;2.80;;;2.20;;
40515;SDS011;26216;53.724;9.898;2022-12-08T08:59:36;3.13;;;2.40;;
40515;SDS011;26216;53.724;9.898;2022-12-08T09:02:02;2.38;;;2.03;;
40515;SDS011;26216;53.724;9.898;2022-12-08T09:04:28;2.72;;;2.13;;
40515;SDS011;26216;53.724;9.898;2022-12-08T09:06:54;3.03;;;2.40;;
40515;SDS011;26216;53.724;9.898;2022-12-08T09:09:20;2.35;;;1.98;;
40515;SDS011;26216;53.724;9.898;2022-12-08T09:11:46;2.63;;;2.00;;
40515;SDS011;26216;53.724;9.898;2022-12-08T09:14:12;3.10;;;2.25;;
40515;SDS011;26216;53.724;9.898;2022-12-08T09:16:39;3.15;;;2.20;;
40515;SDS011;26216;53.724;9.898;2022-12-08T09:19:06;2.75;;;2.33;;
40515;SDS011;26216;53.724;9.898;2022-12-08T09:21:32;2.78;;;2.13;;
40515;SDS011;26216;53.724;9.898;2022-12-08T09:23:58;2.78;;;2.42;;
40515;SDS011;26216;53.724;9.898;2022-12-08T09:26:24;3.40;;;2.95;;
40515;SDS011;26216;53.724;9.898;2022-12-08T09:28:52;3.33;;;2.63;;
40515;SDS011;26216;53.724;9.898;2022-12-08T09:31:19;3.13;;;2.30;;
40515;SDS011;26216;53.724;9.898;2022-12-08T09:33:46;2.95;;;2.60;;
40515;SDS011;26216;53.724;9.898;2022-12-08T09:36:13;3.42;;;2.33;;
40515;SDS011;26216;53.724;9.898;2022-12-08T09:38:39;3.58;;;2.60;;
40515;SDS011;26216;53.724;9.898;2022-12-08T09:46:15;3.20;;;2.60;;
40515;SDS011;26216;53.724;9.898;2022-12-08T09:48:44;3.50;;;2.83;;
40515;SDS011;26216;53.724;9.898;2022-12-08T09:51:16;3.50;;;2.97;;
40515;SDS011;26216;53.724;9.898;2022-12-08T09:53:45;3.20;;;2.40;;
40515;SDS011;26216;53.724;9.898;2022-12-08T09:56:18;3.08;;;2.60;;
40515;SDS011;26216;53.724;9.898;2022-12-08T09:58:51;3.40;;;2.80;;
40515;SDS011;26216;53.724;9.898;2022-12-08T10:01:21;3.35;;;2.60;;
40515;SDS011;26216;53.724;9.898;2022-12-08T10:03:50;3.47;;;2.50;;
40515;SDS011;26216;53.724;9.898;2022-12-08T10:09:14;4.15;;;3.35;;
40515;SDS011;26216;53.724;9.898;2022-12-08T10:14:46;4.93;;;4.10;;
40515;SDS011;26216;53.724;9.898;2022-12-08T10:17:30;4.68;;;4.15;;
40515;SDS011;26216;53.724;9.898;2022-12-08T10:20:12;4.63;;;3.65;;
40515;SDS011;26216;53.724;9.898;2022-12-08T10:22:42;4.15;;;3.40;;
40515;SDS011;26216;53.724;9.898;2022-12-08T10:25:23;3.88;;;3.05;;
40515;SDS011;26216;53.724;9.898;2022-12-08T10:28:00;4.68;;;3.50;;
40515;SDS011;26216;53.724;9.898;2022-12-08T10:30:26;4.25;;;3.35;;
40515;SDS011;26216;53.724;9.898;2022-12-08T10:32:52;4.10;;;3.35;;
40515;SDS011;26216;53.724;9.898;2022-12-08T10:35:22;3.78;;;3.13;;
40515;SDS011;26216;53.724;9.898;2022-12-08T10:38:08;4.05;;;3.20;;
40515;SDS011;26216;53.724;9.898;2022-12-08T10:40:43;4.00;;;3.30;;
40515;SDS011;26216;53.724;9.898;2022-12-08T10:43:17;4.00;;;2.95;;
40515;SDS011;26216;53.724;9.898;2022-12-08T10:45:49;3.78;;;2.83;;
40515;SDS011;26216;53.724;9.898;2022-12-08T10:48:20;3.42;;;2.78;;
40515;SDS011;26216;53.724;9.898;2022-12-08T10:50:55;3.28;;;2.67;;
40515;SDS011;26216;53.724;9.898;2022-12-08T10:53:32;3.75;;;2.80;;
40515;SDS011;26216;53.724;9.898;2022-12-08T10:56:13;3.65;;;2.85;;
40515;SDS011;26216;53.724;9.898;2022-12-08T10:58:44;4.45;;;2.72;;
40515;SDS011;26216;53.724;9.898;2022-12-08T11:09:00;3.30;;;2.80;;
40515;SDS011;26216;53.724;9.898;2022-12-08T11:11:43;3.13;;;2.53;;
40515;SDS011;26216;53.724;9.898;2022-12-08T11:14:18;2.42;;;1.70;;
40515;SDS011;26216;53.724;9.898;2022-12-08T11:19:38;3.28;;;2.13;;
40515;SDS011;26216;53.724;9.898;2022-12-08T11:22:25;3.28;;;2.13;;
40515;SDS011;26216;53.724;9.898;2022-12-08T11:24:57;3.05;;;2.20;;
40515;SDS011;26216;53.724;9.898;2022-12-08T11:27:25;3.70;;;2.58;;
40515;SDS011;26216;53.724;9.898;2022-12-08T11:29:51;3.90;;;2.47;;
40515;SDS011;26216;53.724;9.898;2022-12-08T11:32:17;3.25;;;2.30;;
40515;SDS011;26216;53.724;9.898;2022-12-08T11:34:48;3.72;;;2.60;;
40515;SDS011;26216;53.724;9.898;2022-12-08T11:37:36;4.28;;;2.90;;
40515;SDS011;26216;53.724;9.898;2022-12-08T11:40:06;3.00;;;2.35;;
40515;SDS011;26216;53.724;9.898;2022-12-08T11:42:43;3.42;;;2.72;;
40515;SDS011;26216;53.724;9.898;2022-12-08T11:45:23;3.10;;;2.40;;
40515;SDS011;26216;53.724;9.898;2022-12-08T11:48:02;3.72;;;2.72;;
40515;SDS011;26216;53.724;9.898;2022-12-08T11:50:44;2.80;;;2.25;;
40515;SDS011;26216;53.724;9.898;2022-12-08T11:53:14;3.53;;;2.45;;
40515;SDS011;26216;53.724;9.898;2022-12-08T11:55:57;2.85;;;2.17;;
40515;SDS011;26216;53.724;9.898;2022-12-08T11:58:37;2.78;;;2.25;;
40515;SDS011;26216;53.724;9.898;2022-12-08T12:01:18;3.35;;;2.50;;
40515;SDS011;26216;53.724;9.898;2022-12-08T12:04:12;3.00;;;2.30;;
40515;SDS011;26216;53.724;9.898;2022-12-08T12:06:45;2.97;;;2.28;;
40515;SDS011;26216;53.724;9.898;2022-12-08T12:09:37;3.00;;;2.13;;
40515;SDS011;26216;53.724;9.898;2022-12-08T12:20:29;2.60;;;2.20;;
40515;SDS011;26216;53.724;9.898;2022-12-08T12:23:03;3.08;;;2.47;;
40515;SDS011;26216;53.724;9.898;2022-12-08T12:25:49;3.30;;;2.63;;
40515;SDS011;26216;53.724;9.898;2022-12-08T12:28:21;3.28;;;2.20;;
40515;SDS011;26216;53.724;9.898;2022-12-08T12:30:53;2.75;;;2.00;;
40515;SDS011;26216;53.724;9.898;2022-12-08T12:33:30;3.83;;;2.30;;
40515;SDS011;26216;53.724;9.898;2022-12-08T12:35:56;2.85;;;2.28;;
40515;SDS011;26216;53.724;9.898;2022-12-08T12:38:31;2.75;;;2.17;;
40515;SDS011;26216;53.724;9.898;2022-12-08T12:41:25;3.10;;;2.15;;
40515;SDS011;26216;53.724;9.898;2022-12-08T12:44:08;3.42;;;2.42;;
40515;SDS011;26216;53.724;9.898;2022-12-08T12:47:00;2.40;;;1.95;;
40515;SDS011;26216;53.724;9.898;2022-12-08T13:04:56;2.50;;;1.80;;
40515;SDS011;26216;53.724;9.898;2022-12-08T13:07:32;2.88;;;1.90;;
40515;SDS011;26216;53.724;9.898;2022-12-08T13:10:02;2.30;;;1.92;;
40515;SDS011;26216;53.724;9.898;2022-12-08T13:12:38;2.90;;;2.10;;
40515;SDS011;26216;53.724;9.898;2022-12-08T13:15:04;2.72;;;2.08;;
40515;SDS011;26216;53.724;9.898;2022-12-08T13:17:39;2.13;;;1.70;;
40515;SDS011;26216;53.724;9.898;2022-12-08T13:20:22;2.20;;;1.77;;
40515;SDS011;26216;53.724;9.898;2022-12-08T13:28:21;3.30;;;2.50;;
40515;SDS011;26216;53.724;9.898;2022-12-08T13:30:53;3.05;;;2.17;;
40515;SDS011;26216;53.724;9.898;2022-12-08T13:33:23;2.60;;;2.10;;
40515;SDS011;26216;53.724;9.898;2022-12-08T13:35:54;2.35;;;1.90;;
40515;SDS011;26216;53.724;9.898;2022-12-08T13:38:30;2.70;;;2.00;;
40515;SDS011;26216;53.724;9.898;2022-12-08T13:41:00;3.25;;;2.55;;
40515;SDS011;26216;53.724;9.898;2022-12-08T13:43:31;2.72;;;1.70;;
40515;SDS011;26216;53.724;9.898;2022-12-08T13:46:12;2.80;;;2.13;;
40515;SDS011;26216;53.724;9.898;2022-12-08T13:48:44;2.85;;;2.40;;
40515;SDS011;26216;53.724;9.898;2022-12-08T13:53:44;3.85;;;2.95;;
40515;SDS011;26216;53.724;9.898;2022-12-08T13:56:41;4.25;;;3.10;;
40515;SDS011;26216;53.724;9.898;2022-12-08T14:01:43;3.63;;;2.72;;
40515;SDS011;26216;53.724;9.898;2022-12-08T14:04:17;4.47;;;3.38;;
40515;SDS011;26216;53.724;9.898;2022-12-08T14:06:45;3.90;;;2.90;;
40515;SDS011;26216;53.724;9.898;2022-12-08T14:09:35;3.75;;;2.90;;
40515;SDS011;26216;53.724;9.898;2022-12-08T14:12:03;4.72;;;3.85;;
40515;SDS011;26216;53.724;9.898;2022-12-08T14:14:33;3.67;;;2.70;;
40515;SDS011;26216;53.724;9.898;2022-12-08T14:17:02;3.67;;;2.88;;
40515;SDS011;26216;53.724;9.898;2022-12-08T14:19:31;4.22;;;3.15;;
40515;SDS011;26216;53.724;9.898;2022-12-08T14:22:08;3.83;;;3.08;;
40515;SDS011;26216;53.724;9.898;2022-12-08T14:24:37;3.78;;;3.00;;
40515;SDS011;26216;53.724;9.898;2022-12-08T14:27:07;4.03;;;3.03;;
40515;SDS011;26216;53.724;9.898;2022-12-08T14:29:50;3.92;;;3.13;;
40515;SDS011;26216;53.724;9.898;2022-12-08T14:32:19;3.63;;;2.65;;
40515;SDS011;26216;53.724;9.898;2022-12-08T14:34:56;3.85;;;2.75;;
40515;SDS011;26216;53.724;9.898;2022-12-08T14:37:32;3.90;;;2.90;;
40515;SDS011;26216;53.724;9.898;2022-12-08T14:58:46;4.75;;;3.33;;
40515;SDS011;26216;53.724;9.898;2022-12-08T15:01:16;4.88;;;3.58;;
40515;SDS011;26216;53.724;9.898;2022-12-08T15:03:47;4.35;;;3.25;;
40515;SDS011;26216;53.724;9.898;2022-12-08T15:06:13;4.40;;;3.33;;
40515;SDS011;26216;53.724;9.898;2022-12-08T15:08:56;5.10;;;3.88;;
40515;SDS011;26216;53.724;9.898;2022-12-08T15:11:25;6.25;;;4.35;;
40515;SDS011;26216;53.724;9.898;2022-12-08T15:13:56;5.43;;;3.83;;
40515;SDS011;26216;53.724;9.898;2022-12-08T15:16:26;5.00;;;3.85;;
40515;SDS011;26216;53.724;9.898;2022-12-08T15:19:13;5.18;;;3.88;;
40515;SDS011;26216;53.724;9.898;2022-12-08T15:21:40;5.28;;;3.90;;
40515;SDS011;26216;53.724;9.898;2022-12-08T15:24:09;5.53;;;4.25;;
40515;SDS011;26216;53.724;9.898;2022-12-08T15:26:41;4.78;;;3.75;;
40515;SDS011;26216;53.724;9.898;2022-12-08T15:29:15;5.45;;;4.10;;
40515;SDS011;26216;53.724;9.898;2022-12-08T15:31:49;5.95;;;4.55;;
40515;SDS011;26216;53.724;9.898;2022-12-08T15:34:17;9.48;;;7.07;;
40515;SDS011;26216;53.724;9.898;2022-12-08T15:36:44;10.38;;;7.28;;
40515;SDS011;26216;53.724;9.898;2022-12-08T15:39:19;9.02;;;6.40;;
40515;SDS011;26216;53.724;9.898;2022-12-08T15:41:57;8.43;;;5.93;;
40515;SDS011;26216;53.724;9.898;2022-12-08T15:44:24;7.10;;;5.47;;
40515;SDS011;26216;53.724;9.898;2022-12-08T15:46:51;6.95;;;5.03;;
40515;SDS011;26216;53.724;9.898;2022-12-08T15:49:18;7.75;;;5.20;;
40515;SDS011;26216;53.724;9.898;2022-12-08T15:51:46;5.53;;;4.50;;
40515;SDS011;26216;53.724;9.898;2022-12-08T15:54:13;5.75;;;4.22;;
40515;SDS011;26216;53.724;9.898;2022-12-08T15:56:39;6.78;;;4.20;;
40515;SDS011;26216;53.724;9.898;2022-12-08T15:59:15;7.93;;;6.30;;
40515;SDS011;26216;53.724;9.898;2022-12-08T16:01:43;6.70;;;5.05;;
40515;SDS011;26216;53.724;9.898;2022-12-08T16:04:13;7.55;;;4.80;;
40515;SDS011;26216;53.724;9.898;2022-12-08T16:06:43;6.65;;;4.82;;
40515;SDS011;26216;53.724;9.898;2022-12-08T16:09:18;6.55;;;4.93;;
40515;SDS011;26216;53.724;9.898;2022-12-08T16:11:47;6.65;;;5.03;;
40515;SDS011;26216;53.724;9.898;2022-12-08T16:14:32;6.20;;;4.72;;
40515;SDS011;26216;53.724;9.898;2022-12-08T16:16:58;6.10;;;4.63;;
40515;SDS011;26216;53.724;9.898;2022-12-08T16:19:24;6.43;;;4.57;;
40515;SDS011;26216;53.724;9.898;2022-12-08T16:21:53;5.38;;;3.80;;
40515;SDS011;26216;53.724;9.898;2022-12-08T16:24:19;5.45;;;3.88;;
40515;SDS011;26216;53.724;9.898;2022-12-08T16:26:45;5.43;;;4.05;;
40515;SDS011;26216;53.724;9.898;2022-12-08T16:29:18;5.78;;;4.32;;
40515;SDS011;26216;53.724;9.898;2022-12-08T16:31:45;6.10;;;4.38;;
40515;SDS011;26216;53.724;9.898;2022-12-08T16:34:11;5.50;;;4.20;;
40515;SDS011;26216;53.724;9.898;2022-12-08T16:36:37;7.00;;;4.18;;
40515;SDS011;26216;53.724;9.898;2022-12-08T16:39:03;4.97;;;3.75;;
40515;SDS011;26216;53.724;9.898;2022-12-08T16:41:29;6.38;;;4.35;;
40515;SDS011;26216;53.724;9.898;2022-12-08T16:44:13;4.82;;;3.42;;
40515;SDS011;26216;53.724;9.898;2022-12-08T16:46:39;6.60;;;4.47;;
40515;SDS011;26216;53.724;9.898;2022-12-08T16:49:06;5.40;;;4.00;;
40515;SDS011;26216;53.724;9.898;2022-12-08T16:51:33;5.32;;;3.75;;
40515;SDS011;26216;53.724;9.898;2022-12-08T16:53:59;5.32;;;4.00;;
40515;SDS011;26216;53.724;9.898;2022-12-08T16:56:25;5.63;;;4.15;;
40515;SDS011;26216;53.724;9.898;2022-12-08T16:58:51;5.65;;;3.83;;
40515;SDS011;26216;53.724;9.898;2022-12-08T17:01:17;5.53;;;4.03;;
40515;SDS011;26216;53.724;9.898;2022-12-08T17:03:44;5.70;;;4.10;;